createdAt,value
2023-09-16T00:01:10.335Z,101187.34
2023-09-16T00:06:13.943Z,101195.84
2023-09-16T00:11:15.486Z,101191.50
2023-09-16T00:16:17.130Z,101197.44
2023-09-16T00:21:19.182Z,101194.84
2023-09-16T00:26:20.736Z,101188.78
2023-09-16T00:31:22.530Z,101174.91
2023-09-16T00:36:24.270Z,101171.34
2023-09-16T00:41:26.413Z,101169.75
2023-09-16T00:46:28.014Z,101163.75
2023-09-16T00:51:29.572Z,101160.13
2023-09-16T00:56:31.248Z,101150.72
2023-09-16T01:01:32.993Z,101149.78
2023-09-16T01:06:34.632Z,101143.81
2023-09-16T01:11:36.462Z,101134.25
2023-09-16T01:16:46.667Z,101135.09
2023-09-16T01:21:49.787Z,101131.50
2023-09-16T01:26:51.816Z,101121.16
2023-09-16T01:31:58.404Z,101115.84
2023-09-16T01:37:01.860Z,101110.56
2023-09-16T01:42:04.412Z,101115.69
2023-09-16T01:47:08.442Z,101097.50
2023-09-16T01:52:09.942Z,101107.84
2023-09-16T01:57:11.824Z,101106.03
2023-09-16T02:02:13.493Z,101132.66
2023-09-16T02:07:15.122Z,101135.22
2023-09-16T02:12:16.748Z,101135.91
2023-09-16T02:17:18.918Z,101146.34
2023-09-16T02:22:20.400Z,101152.28
2023-09-16T02:27:23.135Z,101144.47
2023-09-16T02:32:24.821Z,101140.91
2023-09-16T02:37:26.365Z,101141.81
2023-09-16T02:42:27.925Z,101143.50
2023-09-16T02:47:31.752Z,101139.94
2023-09-16T02:52:35.173Z,101139.03
2023-09-16T02:57:36.812Z,101141.41
2023-09-16T03:02:38.414Z,101134.53
2023-09-16T03:07:40.138Z,101137.03
2023-09-16T03:12:42.015Z,101127.53
2023-09-16T03:17:54.194Z,101132.63
2023-09-16T03:23:04.045Z,101135.19
2023-09-16T03:28:06.693Z,101126.47
2023-09-16T03:33:10.312Z,101126.34
2023-09-16T03:38:12.258Z,101119.53
2023-09-16T03:43:13.913Z,101114.28
2023-09-16T03:48:15.529Z,101115.06
2023-09-16T03:53:25.861Z,101108.06
2023-09-16T03:58:34.354Z,101105.47
2023-09-16T04:03:36.169Z,101104.69
2023-09-16T04:08:42.456Z,101105.41
2023-09-16T04:13:44.522Z,101104.53
2023-09-16T04:18:46.087Z,101099.34
2023-09-16T04:23:47.983Z,101102.78
2023-09-16T04:28:51.042Z,101116.53
2023-09-16T04:33:53.126Z,101122.44
2023-09-16T04:38:54.742Z,101124.19
2023-09-16T04:43:56.296Z,101120.78
2023-09-16T04:48:57.869Z,101126.63
2023-09-16T04:53:59.536Z,101122.94
2023-09-16T04:59:01.188Z,101128.25
2023-09-16T05:04:02.930Z,101126.56
2023-09-16T05:09:04.802Z,101130.88
2023-09-16T05:14:06.374Z,101119.53
2023-09-16T05:19:07.974Z,101114.31
2023-09-16T05:24:09.834Z,101116.22
2023-09-16T05:29:11.680Z,101097.34
2023-09-16T05:34:13.419Z,101099.09
2023-09-16T05:39:15.120Z,101090.47
2023-09-16T05:44:21.196Z,101092.31
2023-09-16T05:49:22.779Z,101151.75
2023-09-16T05:54:27.292Z,101186.53
2023-09-16T05:59:29.089Z,101183.19
2023-09-16T06:04:34.003Z,101184.97
2023-09-16T06:09:35.674Z,101179.59
2023-09-16T06:14:37.459Z,101189.97
2023-09-16T06:19:39.426Z,101182.00
2023-09-16T06:24:41.155Z,101173.66
2023-09-16T06:29:44.383Z,101165.44
2023-09-16T06:34:46.378Z,101163.16
2023-09-16T06:39:49.121Z,101164.28
2023-09-16T06:44:55.609Z,101151.63
2023-09-16T06:49:57.875Z,101148.44
2023-09-16T06:54:59.514Z,101149.47
2023-09-16T07:00:03.408Z,101175.66
2023-09-16T07:05:05.251Z,101210.75
2023-09-16T07:10:07.389Z,101218.03
2023-09-16T07:15:10.952Z,101213.91
2023-09-16T07:20:12.704Z,101204.56
2023-09-16T07:25:14.466Z,101199.56
2023-09-16T07:30:16.189Z,101195.28
2023-09-16T07:35:18.224Z,101191.91
2023-09-16T07:40:19.963Z,101170.13
2023-09-16T07:45:21.808Z,101157.63
2023-09-16T07:50:23.434Z,101150.41
2023-09-16T07:55:25.081Z,101136.13
2023-09-16T08:00:30.090Z,101118.03
2023-09-16T08:05:31.727Z,101137.00
2023-09-16T08:10:33.557Z,101182.38
2023-09-16T08:15:35.447Z,101254.00
2023-09-16T08:20:37.116Z,101352.72
2023-09-16T08:25:38.841Z,101442.81
2023-09-16T08:30:40.715Z,101476.69
2023-09-16T08:35:43.226Z,101500.28
2023-09-16T08:40:45.049Z,101536.97
2023-09-16T08:45:55.201Z,101553.47
2023-09-16T08:50:58.636Z,101569.06
2023-09-16T08:56:00.647Z,101574.06
2023-09-16T09:01:05.381Z,101593.16
2023-09-16T09:06:08.452Z,101600.06
2023-09-16T09:11:15.962Z,101618.88
2023-09-16T09:16:19.679Z,101645.13
2023-09-16T09:21:22.216Z,101675.16
2023-09-16T09:26:24.052Z,101723.81
2023-09-16T09:31:25.940Z,101741.44
2023-09-16T09:36:28.729Z,101751.16
2023-09-16T09:41:43.168Z,101772.16
2023-09-16T09:46:45.075Z,101784.06
2023-09-16T09:51:49.575Z,101790.38
2023-09-16T09:56:51.448Z,101846.75
2023-09-16T10:01:53.497Z,101819.38
2023-09-16T10:06:59.390Z,101773.50
2023-09-16T10:12:04.740Z,101678.81
2023-09-16T10:17:06.823Z,100788.34
2023-09-16T10:22:09.232Z,100701.03
2023-09-16T10:27:23.207Z,100790.84
2023-09-16T10:32:25.197Z,100903.25
2023-09-16T10:37:27.888Z,101047.16
2023-09-16T10:42:33.475Z,101119.97
2023-09-16T10:47:35.652Z,101166.84
2023-09-16T10:52:53.237Z,101197.41
2023-09-16T10:58:24.362Z,101225.91
2023-09-16T11:03:31.045Z,101214.63
2023-09-16T11:08:32.899Z,101231.69
2023-09-16T11:13:35.114Z,101231.31
2023-09-16T11:18:44.125Z,101246.50
2023-09-16T11:23:48.376Z,101238.88
2023-09-16T11:29:01.095Z,101238.66
2023-09-16T11:34:10.703Z,101234.03
2023-09-16T11:39:12.665Z,101233.38
2023-09-16T11:44:20.868Z,101230.34
2023-09-16T11:49:23.201Z,101219.56
2023-09-16T11:54:25.141Z,101191.81
2023-09-16T11:59:29.469Z,101186.72
2023-09-16T12:04:35.438Z,101181.94
2023-09-16T12:09:43.982Z,101165.75
2023-09-16T12:14:50.388Z,101160.41
2023-09-16T12:19:53.559Z,101157.59
2023-09-16T12:25:00.710Z,101143.97
2023-09-16T12:30:35.940Z,101148.38
2023-09-16T12:35:40.356Z,101135.03
2023-09-16T12:40:43.423Z,101122.72
2023-09-16T12:45:45.397Z,101122.16
2023-09-16T12:50:48.384Z,101100.41
2023-09-16T12:55:53.036Z,101105.75
2023-09-16T13:00:54.825Z,101092.25
2023-09-16T13:06:06.194Z,101104.78
2023-09-16T13:11:09.833Z,101102.69
2023-09-16T13:16:12.214Z,101098.47
2023-09-16T13:21:18.831Z,101102.78
2023-09-16T13:26:22.928Z,101094.72
2023-09-16T13:31:35.140Z,101098.69
2023-09-16T13:36:43.663Z,101082.00
2023-09-16T13:41:48.444Z,101099.41
2023-09-16T13:46:51.585Z,101110.50
2023-09-16T13:51:53.285Z,101102.16
2023-09-16T13:56:56.102Z,101121.09
2023-09-16T14:01:57.870Z,101112.25
2023-09-16T14:06:59.470Z,101111.50
2023-09-16T14:12:01.740Z,101116.03
2023-09-16T14:17:03.487Z,101095.53
2023-09-16T14:22:05.632Z,101110.03
2023-09-16T14:27:09.294Z,101111.94
2023-09-16T14:32:12.293Z,101112.44
2023-09-16T14:37:14.155Z,101108.69
2023-09-16T14:42:17.552Z,101112.88
2023-09-16T14:47:19.166Z,101109.78
2023-09-16T14:52:21.240Z,101092.19
2023-09-16T14:57:24.383Z,101087.06
2023-09-16T15:02:26.137Z,101070.47
2023-09-16T15:07:27.776Z,101073.91
2023-09-16T15:12:29.586Z,101069.03
2023-09-16T15:17:31.240Z,101056.16
2023-09-16T15:22:33.638Z,101021.84
2023-09-16T15:27:35.400Z,101018.56
2023-09-16T15:32:46.013Z,101004.50
2023-09-16T15:37:48.855Z,101023.41
2023-09-16T15:42:53.364Z,100983.34
2023-09-16T15:47:55.055Z,100938.75
2023-09-16T15:52:56.706Z,100923.16
2023-09-16T15:57:59.123Z,100885.34
2023-09-16T16:03:01.101Z,100841.56
2023-09-16T16:08:03.845Z,100815.78
2023-09-16T16:13:05.583Z,100796.06
2023-09-16T16:18:08.024Z,100790.56
2023-09-16T16:23:09.867Z,100794.97
2023-09-16T16:28:11.731Z,100768.31
2023-09-16T16:33:15.693Z,100722.19
2023-09-16T16:38:17.312Z,100681.56
2023-09-16T16:43:18.972Z,100664.00
2023-09-16T16:48:20.665Z,100628.88
2023-09-16T16:53:22.296Z,100604.41
2023-09-16T16:58:24.243Z,100575.00
2023-09-16T17:03:26.041Z,100556.16
2023-09-16T17:08:27.847Z,100522.44
2023-09-16T17:13:29.522Z,100495.94
2023-09-16T17:18:31.644Z,100500.28
2023-09-16T17:23:37.134Z,100595.97
2023-09-16T17:28:38.854Z,100795.00
2023-09-16T17:33:43.141Z,100985.84
2023-09-16T17:38:45.338Z,101187.09
2023-09-16T17:43:48.921Z,101413.56
2023-09-16T17:48:50.905Z,101542.66
2023-09-16T17:53:52.797Z,101626.19
2023-09-16T17:58:54.512Z,101648.13
2023-09-16T18:03:56.245Z,101680.69
2023-09-16T18:08:57.822Z,101737.72
2023-09-16T18:13:59.648Z,101752.81
2023-09-16T18:19:01.391Z,101764.38
2023-09-16T18:24:06.968Z,101772.31
2023-09-16T18:29:18.674Z,101780.00
2023-09-16T18:34:23.672Z,101803.69
2023-09-16T18:39:30.426Z,101824.69
2023-09-16T18:44:32.177Z,101836.13
2023-09-16T18:49:38.769Z,101840.53
2023-09-16T18:54:40.623Z,101843.22
2023-09-16T18:59:43.939Z,101834.56
2023-09-16T19:04:48.627Z,101840.72
2023-09-16T19:09:52.359Z,101831.06
2023-09-16T19:14:56.257Z,101846.84
2023-09-16T19:20:03.594Z,101854.75
2023-09-16T19:25:08.999Z,101856.53
2023-09-16T19:30:14.031Z,101864.38
2023-09-16T19:35:15.675Z,101861.78
2023-09-16T19:40:18.547Z,101859.19
2023-09-16T19:45:21.561Z,101825.22
2023-09-16T19:50:29.156Z,101800.78
2023-09-16T19:55:36.120Z,101756.22
2023-09-16T20:00:38.669Z,101730.00
2023-09-16T20:05:41.031Z,101671.59
2023-09-16T20:10:44.434Z,101646.22
2023-09-16T20:15:46.198Z,101654.94
2023-09-16T20:20:51.324Z,101675.03
2023-09-16T20:25:53.884Z,101689.00
2023-09-16T20:36:15.977Z,101741.41
2023-09-16T20:41:20.264Z,101764.09
2023-09-16T20:46:24.856Z,101796.41
2023-09-16T20:51:26.714Z,101835.69
2023-09-16T20:56:28.580Z,101863.66
2023-09-16T21:01:33.819Z,101870.69
2023-09-16T21:06:36.659Z,101896.88
2023-09-16T21:11:38.436Z,101889.88
2023-09-16T21:16:43.417Z,101903.84
2023-09-16T21:21:50.313Z,101913.50
2023-09-16T21:26:55.819Z,101924.81
2023-09-16T21:32:02.267Z,101940.56
2023-09-16T21:37:05.993Z,101954.53
2023-09-16T21:42:10.691Z,101965.03
2023-09-16T21:47:12.758Z,101995.59
2023-09-16T21:52:14.798Z,102001.72
2023-09-16T21:57:16.412Z,102017.44
2023-09-16T22:02:18.293Z,102032.25
2023-09-16T22:07:20.154Z,102033.16
2023-09-16T22:12:22.368Z,102040.13
2023-09-16T22:17:24.313Z,102041.00
2023-09-16T22:22:27.367Z,102039.22
2023-09-16T22:27:30.060Z,102034.84
2023-09-16T22:32:32.605Z,102011.25
2023-09-16T22:37:34.465Z,102006.88
2023-09-16T22:42:36.779Z,101992.00
2023-09-16T22:47:38.565Z,101995.44
2023-09-16T22:52:40.728Z,101991.88
2023-09-16T22:57:42.457Z,102000.56
2023-09-16T23:02:46.794Z,101994.41
2023-09-16T23:07:48.858Z,102005.69
2023-09-16T23:12:51.610Z,102012.59
2023-09-16T23:17:56.095Z,102023.03
2023-09-16T23:23:03.263Z,102027.34
2023-09-16T23:28:05.455Z,102029.03
2023-09-16T23:33:07.097Z,102028.13
2023-09-16T23:38:09.442Z,102035.09
2023-09-16T23:43:12.840Z,102045.47
2023-09-16T23:48:14.654Z,102049.81
2023-09-16T23:53:16.902Z,102053.31
2023-09-16T23:58:21.445Z,102048.94
